Impacts TAF Board INFO
FOR SITUATIONAL AWARENESS. NOT TO BE USED FOR FLIGHT PLANNING PURPOSES.
IDs:

KMEM - Memphis Intl, TN, US

Issued at 1328 UTC 16 Jan 2018
Updated at 1511 UTC 16 Jan 2018
Potential Impact None Slight Moderate High
Time<<17/16Z 17/17Z 17/18Z 17/19Z 17/20Z 17/21Z 17/22Z 17/23Z 18/00Z 18/01Z 18/02Z 18/03Z 18/04Z
Type PRVL PRVL
VIS >6 >6
CIG -- --
Cover SCT SCT
FltCat VFR VFR
WX -- --
WDir 350 350
WSpd 5 5
WGst -- --

Raw TAF
KMEM 161328Z 1613/1718 35009KT P6SM VCSH SCT008 OVC050
  FM161400 36011KT P6SM OVC040
  FM161800 35007KT P6SM BKN035 OVC100
  FM170100 35004KT P6SM OVC050
  FM171500 35005KT P6SM SCT050 SCT100


METAR Board
Radar Display
Forecast Discussion

FOR SITUATIONAL AWARENESS. NOT TO BE USED FOR FLIGHT PLANNING PURPOSES.